EST,Max TemperatureF,Mean TemperatureF,Min TemperatureF,Max Dew PointF,MeanDew PointF,Min DewpointF,Max Humidity, Mean Humidity, Min Humidity, Max Sea Level PressureIn, Mean Sea Level PressureIn, Min Sea Level PressureIn, Max VisibilityMiles, Mean VisibilityMiles, Min VisibilityMiles, Max Wind SpeedMPH, Mean Wind SpeedMPH, Max Gust SpeedMPH,PrecipitationIn, CloudCover, Events, WindDirDegrees
2013-11-1,66,61,56,62,58,54,93,83,73,29.79,29.63,29.54,10,9,2,29,15,37,0.07,4,Rain,221
2013-11-2,65,57,48,54,46,39,93,67,40,29.77,29.67,29.62,10,10,9,13,3,17,0.00,3,,323
2013-11-3,53,44,35,42,32,20,86,64,42,30.42,30.09,29.78,10,10,10,22,12,29,0.00,3,,342
2013-11-4,45,39,32,20,16,14,49,40,30,30.68,30.61,30.47,10,10,2,17,8,23,0.00,0,,32
2013-11-5,53,45,36,41,32,22,71,60,48,30.69,30.62,30.52,10,10,10,12,7,15,0.00,1,,92
2013-11-6,61,54,46,55,47,41,93,72,51,30.49,30.32,30.09,10,10,10,14,8,17,0.00,4,,200
2013-11-7,61,51,41,59,52,34,97,87,76,30.07,29.87,29.74,10,8,2,22,8,31,0.17,7,Rain,258
2013-11-8,51,45,38,32,28,24,73,55,36,30.18,30.02,29.91,10,10,10,23,10,29,0.00,4,,284
2013-11-9,50,43,36,35,28,25,70,55,39,30.27,30.18,30.02,10,10,10,20,9,24,0.00,3,,251
2013-11-10,62,55,47,38,34,27,66,48,29,29.99,29.90,29.77,10,10,10,29,14,36,0.01,5,Rain,258
2013-11-11,53,47,41,38,30,26,57,48,39,30.18,30.07,29.95,10,10,10,24,12,32,0.00,4,,250
2013-11-12,53,41,28,38,27,16,92,70,47,30.27,30.10,29.93,10,8,2,24,11,31,0.01,5,Rain-Snow,326
2013-11-13,39,32,25,21,15,10,63,47,30,30.35,30.30,30.26,10,10,10,21,10,26,0.00,0,,307
2013-11-14,52,43,34,28,22,18,61,46,31,30.24,30.18,30.13,10,10,10,20,11,29,0.00,0,,247
2013-11-15,55,45,35,40,32,21,85,65,45,30.25,30.20,30.16,10,10,8,13,4,16,0.00,0,,246
2013-11-16,57,48,39,47,41,31,100,79,57,30.33,30.29,30.24,10,9,4,13,4,15,0.02,2,Rain,225
2013-11-17,59,52,44,58,52,43,100,95,89,30.29,30.11,29.83,10,4,0,12,6,15,0.02,8,Fog-Rain,85
2013-11-18,63,57,50,59,49,25,100,67,33,29.81,29.67,29.58,10,8,2,24,11,32,0.25,5,Rain,222
2013-11-19,51,43,34,27,23,19,56,46,35,30.33,30.03,29.75,10,10,10,26,14,39,0.00,1,,321
2013-11-20,46,38,30,20,13,6,58,39,19,30.62,30.52,30.34,10,10,10,22,10,32,0.00,0,,8
2013-11-21,49,39,29,43,29,17,77,57,37,30.64,30.55,30.40,10,10,10,10,5,13,0.00,3,,58
2013-11-22,53,50,46,52,48,41,100,90,80,30.38,30.12,29.88,10,6,2,12,4,15,0.15,7,Rain,234
2013-11-23,52,42,31,48,26,9,89,59,28,29.98,29.92,29.88,10,10,4,28,14,38,T,2,Snow,300
2013-11-24,31,27,23,16,3,-7,58,40,21,30.32,30.12,29.95,10,10,10,32,18,49,0.00,1,,301
2013-11-25,36,27,18,19,13,7,68,52,35,30.47,30.39,30.32,10,10,10,22,9,29,0.00,0,,246
2013-11-26,49,43,36,48,28,16,100,70,40,30.34,30.22,29.89,10,8,4,21,8,28,0.39,7,Rain,176
2013-11-27,62,49,36,61,51,26,100,88,76,29.79,29.45,29.30,10,5,0,32,15,54,1.42,8,Fog-Rain,210
2013-11-28,37,33,28,21,14,10,70,53,35,30.48,30.16,29.70,10,10,10,25,11,36,0.00,2,,292
2013-11-29,40,34,27,19,16,13,63,52,40,30.74,30.59,30.48,10,10,10,14,5,21,0.00,4,,334
2013-11-30,42,32,22,33,18,9,68,55,42,30.79,30.66,30.40,10,10,10,14,8,17,0.00,2,,73